Time;durP1;ratioP1;P1;durP2;ratioP2;P2;SDS_P1;SDS_P2;PMS_P1;PMS_P2;Temp;Humidity;BMP_temperature;BMP_pressure;BME280_temperature;BME280_humidity;BME280_pressure;Samples;Min_cycle;Max_cycle;Signal;HPM_P1;HPM_P2
2022/08/15 00:00:57;;;;;;;14.05;13.22;;;;;;;22.09;100.00;100272.36;1946074;73;24158;-68
2022/08/15 00:03:31;;;;;;;14.05;13.35;;;;;;;22.16;100.00;100269.67;1945971;74;24143;-68
2022/08/15 00:06:04;;;;;;;14.00;13.18;;;;;;;22.16;100.00;100270.47;1945951;73;24135;-67
2022/08/15 00:08:38;;;;;;;13.85;13.15;;;;;;;22.18;100.00;100267.27;1946060;74;24688;-67
2022/08/15 00:14:27;;;;;;;13.50;12.80;;;;;;;22.29;100.00;100256.97;2005925;71;30917;-67
2022/08/15 00:20:14;;;;;;;13.58;12.78;;;;;;;22.14;100.00;100264.39;2004562;71;30889;-66
2022/08/15 00:25:49;;;;;;;13.32;12.63;;;;;;;22.03;100.00;100261.98;2060037;69;26504;-67
2022/08/15 00:28:20;;;;;;;13.28;12.47;;;;;;;22.06;100.00;100268.88;1981768;72;24599;-67
2022/08/15 00:30:51;;;;;;;12.88;12.20;;;;;;;22.12;100.00;100271.63;1981677;72;24112;-68
2022/08/15 00:33:22;;;;;;;13.72;13.13;;;;;;;22.11;100.00;100272.81;1981636;72;24194;-67
2022/08/15 00:35:53;;;;;;;13.48;12.88;;;;;;;22.17;100.00;100272.70;1981632;72;24640;-67
2022/08/15 00:38:25;;;;;;;14.00;13.20;;;;;;;22.10;100.00;100270.58;1981740;72;24556;-67
2022/08/15 00:43:50;;;;;;;12.95;12.35;;;;;;;22.08;100.00;100265.88;1981728;72;24194;-68
2022/08/15 00:46:25;;;;;;;13.38;12.78;;;;;;;22.04;100.00;100272.07;1981698;72;24133;-67
2022/08/15 00:48:56;;;;;;;13.53;12.73;;;;;;;21.97;100.00;100264.06;1980269;72;24151;-68
2022/08/15 00:54:30;;;;;;;14.50;13.70;;;;;;;22.08;100.00;100265.88;2060148;69;26480;-67
2022/08/15 00:57:04;;;;;;;13.83;13.18;;;;;;;21.92;100.00;100270.84;2026032;71;24134;-67
2022/08/15 00:59:37;;;;;;;14.28;13.58;;;;;;;22.03;100.00;100269.64;1944986;73;24214;-67
2022/08/15 01:02:10;;;;;;;13.55;12.85;;;;;;;22.04;100.00;100265.59;1985348;72;24096;-68
2022/08/15 01:04:41;;;;;;;13.72;13.08;;;;;;;22.07;100.00;100270.52;1981760;72;24164;-68
2022/08/15 01:07:12;;;;;;;14.07;13.38;;;;;;;21.98;100.00;100262.88;1981694;72;24606;-67
2022/08/15 01:09:43;;;;;;;14.40;13.70;;;;;;;21.87;100.00;100256.16;1981725;72;24568;-68
2022/08/15 01:12:16;;;;;;;14.30;13.60;;;;;;;22.00;100.00;100257.64;1981668;72;24129;-67
2022/08/15 01:14:49;;;;;;;14.28;13.58;;;;;;;21.90;100.00;100253.42;1981691;72;24669;-67
2022/08/15 01:17:20;;;;;;;14.18;13.45;;;;;;;21.90;100.00;100243.52;1981619;72;24121;-68
2022/08/15 01:19:55;;;;;;;14.20;13.43;;;;;;;21.98;100.00;100244.49;1981582;72;24603;-67
2022/08/15 01:22:39;;;;;;;13.55;12.82;;;;;;;21.60;100.00;100204.39;1946622;74;24197;-67
2022/08/15 01:25:13;;;;;;;13.80;13.10;;;;;;;21.91;100.00;100245.13;1945992;74;24665;-68
2022/08/15 01:27:47;;;;;;;14.10;13.38;;;;;;;21.90;100.00;100245.53;1946512;74;24197;-68
2022/08/15 01:30:20;;;;;;;14.50;13.70;;;;;;;21.82;100.00;100239.53;1946522;74;24559;-67
2022/08/15 01:32:53;;;;;;;14.23;13.60;;;;;;;21.63;100.00;100236.13;1946484;74;24248;-68
2022/08/15 01:35:23;;;;;;;14.50;13.80;;;;;;;21.52;100.00;100233.08;1946598;74;24121;-68
2022/08/15 01:37:54;;;;;;;14.25;13.53;;;;;;;21.56;100.00;100228.94;1946545;74;24116;-68
2022/08/15 01:40:30;;;;;;;14.53;13.73;;;;;;;21.62;100.00;100224.00;1946574;74;24117;-67
2022/08/15 01:43:01;;;;;;;14.28;13.58;;;;;;;21.63;100.00;100223.41;1946740;74;24108;-67
2022/08/15 01:45:34;;;;;;;14.83;14.03;;;;;;;21.76;100.00;100221.45;1946533;74;24249;-68
2022/08/15 01:51:07;;;;;;;15.10;14.03;;;;;;;21.59;100.00;100214.88;2059927;69;26382;-69
2022/08/15 01:53:40;;;;;;;14.23;13.53;;;;;;;21.72;100.00;100210.68;1981825;72;24144;-68
2022/08/15 01:59:14;;;;;;;14.97;14.07;;;;;;;21.55;100.00;100201.27;2048396;69;25920;-66
2022/08/15 02:01:48;;;;;;;15.10;14.37;;;;;;;21.38;100.00;100198.92;1981754;72;24199;-67
2022/08/15 02:04:21;;;;;;;14.40;13.70;;;;;;;21.40;100.00;100202.77;1967322;72;24159;-68
2022/08/15 02:06:52;;;;;;;15.93;15.03;;;;;;;21.38;100.00;100203.16;1955324;71;24134;-68
2022/08/15 02:09:23;;;;;;;15.03;14.30;;;;;;;21.33;100.00;100197.80;1955625;71;24326;-67
2022/08/15 02:11:54;;;;;;;15.50;14.73;;;;;;;21.25;100.00;100200.27;1995368;69;24187;-67
2022/08/15 02:14:25;;;;;;;15.60;14.80;;;;;;;21.13;100.00;100197.60;2008002;70;24140;-66
2022/08/15 02:16:55;;;;;;;16.00;15.20;;;;;;;21.08;100.00;100200.09;1929261;73;24622;-67
2022/08/15 02:19:26;;;;;;;15.70;14.90;;;;;;;21.10;100.00;100199.11;2005929;70;24135;-68
2022/08/15 02:21:56;;;;;;;16.50;15.27;;;;;;;21.10;100.00;100199.70;1960264;71;24210;-67
2022/08/15 02:24:27;;;;;;;16.00;15.13;;;;;;;21.18;100.00;100209.39;2012111;71;24099;-68
2022/08/15 02:26:57;;;;;;;15.77;14.97;;;;;;;21.20;100.00;100201.38;1925496;73;24160;-68
2022/08/15 02:29:29;;;;;;;15.63;14.83;;;;;;;21.21;100.00;100200.20;1917215;75;24575;-67
2022/08/15 02:32:03;;;;;;;16.10;15.27;;;;;;;21.18;100.00;100202.95;1927728;72;26755;-67
2022/08/15 02:34:35;;;;;;;16.57;15.73;;;;;;;21.13;100.00;100203.25;1969453;72;24609;-67
2022/08/15 02:37:06;;;;;;;17.23;16.43;;;;;;;21.01;100.00;100205.58;1959125;71;24580;-67
2022/08/15 02:39:37;;;;;;;16.63;15.73;;;;;;;21.07;100.00;100201.28;2008017;69;24321;-68
2022/08/15 02:42:08;;;;;;;17.07;16.17;;;;;;;21.08;100.00;100195.04;1996409;70;24205;-67
2022/08/15 02:44:39;;;;;;;17.17;16.23;;;;;;;20.99;100.00;100197.27;1949511;72;24175;-67
2022/08/15 02:47:10;;;;;;;16.23;15.43;;;;;;;20.92;100.00;100185.83;1961799;72;24149;-68
2022/08/15 02:49:41;;;;;;;17.23;16.43;;;;;;;20.90;100.00;100184.19;2005912;70;24131;-67
2022/08/15 02:52:12;;;;;;;16.90;16.10;;;;;;;20.83;100.00;100184.63;2007344;70;24599;-68
2022/08/15 02:54:42;;;;;;;16.67;15.77;;;;;;;20.97;100.00;100184.09;1937079;73;24154;-68
2022/08/15 03:00:17;;;;;;;17.17;16.07;;;;;;;20.90;100.00;100172.89;2061282;69;25935;-68
2022/08/15 03:02:59;;;;;;;17.40;16.60;;;;;;;20.77;100.00;100182.69;2020039;70;24211;-68
2022/08/15 03:05:31;;;;;;;17.40;16.50;;;;;;;20.85;100.00;100174.59;2016673;71;24134;-68
2022/08/15 03:08:03;;;;;;;18.00;17.20;;;;;;;20.80;100.00;100169.23;2016724;71;24150;-68
2022/08/15 03:10:34;;;;;;;18.60;17.60;;;;;;;20.72;100.00;100171.69;2016814;71;24138;-68
2022/08/15 03:13:07;;;;;;;18.07;17.17;;;;;;;20.59;100.00;100174.41;2016733;71;24169;-68
2022/08/15 03:15:43;;;;;;;17.90;17.00;;;;;;;20.82;100.00;100170.29;2016812;71;24122;-68
2022/08/15 03:18:14;;;;;;;17.70;16.80;;;;;;;20.72;100.00;100162.39;2016761;71;24146;-68
2022/08/15 03:20:46;;;;;;;18.73;17.83;;;;;;;20.67;100.00;100167.73;2016789;71;24172;-68
2022/08/15 03:23:16;;;;;;;18.40;17.50;;;;;;;20.52;100.00;100168.63;2016859;71;24250;-68
2022/08/15 03:25:50;;;;;;;19.00;18.10;;;;;;;20.64;100.00;100162.02;2016650;71;24119;-68
2022/08/15 03:28:23;;;;;;;20.10;18.90;;;;;;;20.62;100.00;100162.41;2016623;71;26717;-68
2022/08/15 03:30:54;;;;;;;19.93;18.80;;;;;;;20.56;100.00;100164.47;2016737;71;24130;-68
2022/08/15 03:33:24;;;;;;;20.20;19.10;;;;;;;20.48;100.00;100162.08;2016679;71;24148;-68
2022/08/15 03:35:57;;;;;;;19.47;18.57;;;;;;;20.53;100.00;100166.63;2016866;71;24652;-72
2022/08/15 03:38:28;;;;;;;20.67;19.57;;;;;;;20.52;100.00;100164.39;2016708;71;24239;-72
2022/08/15 03:40:59;;;;;;;19.70;18.70;;;;;;;20.55;100.00;100161.41;2016819;71;24130;-73
2022/08/15 03:43:31;;;;;;;19.80;18.80;;;;;;;20.58;100.00;100154.43;2016851;71;24601;-72
2022/08/15 03:46:04;;;;;;;20.33;19.33;;;;;;;20.57;100.00;100155.64;2016765;71;24146;-72
2022/08/15 03:51:35;;;;;;;20.70;19.60;;;;;;;20.46;100.00;100139.05;2059916;69;26000;-72
2022/08/15 03:54:05;;;;;;;21.80;20.60;;;;;;;20.47;100.00;100141.28;2026053;71;24160;-72
2022/08/15 03:56:36;;;;;;;21.37;20.23;;;;;;;20.34;100.00;100136.36;1945183;73;24200;-67
2022/08/15 03:59:06;;;;;;;22.30;21.23;;;;;;;20.23;100.00;100135.28;1927351;74;24235;-67
2022/08/15 04:01:38;;;;;;;22.80;21.53;;;;;;;20.16;100.00;100129.45;1844188;73;936827;-67
2022/08/15 04:04:08;;;;;;;23.50;22.00;;;;;;;20.23;100.00;100129.64;1816128;79;24167;-67
2022/08/15 04:06:40;;;;;;;24.93;23.63;;;;;;;20.29;100.00;100132.37;1796537;80;24252;-67
2022/08/15 04:09:11;;;;;;;25.93;24.37;;;;;;;20.03;100.00;100137.20;1796551;80;24143;-67
2022/08/15 04:11:42;;;;;;;24.87;23.47;;;;;;;20.03;100.00;100135.80;1796596;79;24226;-67
2022/08/15 04:14:13;;;;;;;24.37;22.73;;;;;;;20.23;100.00;100143.15;1796516;79;24160;-67
2022/08/15 04:16:44;;;;;;;23.73;22.47;;;;;;;20.31;100.00;100149.80;1796603;79;24614;-67
2022/08/15 04:19:15;;;;;;;23.97;22.80;;;;;;;20.27;100.00;100138.99;1796499;80;24244;-67
2022/08/15 04:21:46;;;;;;;22.73;21.53;;;;;;;20.19;100.00;100138.61;1796586;79;24152;-67
2022/08/15 04:24:18;;;;;;;21.97;20.87;;;;;;;20.32;100.00;100136.72;1796487;80;24156;-67
2022/08/15 04:26:48;;;;;;;27.33;25.87;;;;;;;20.31;100.00;100141.34;1796477;80;24636;-67
2022/08/15 04:29:18;;;;;;;27.47;25.87;;;;;;;19.83;100.00;100136.33;1796467;80;24627;-67
2022/08/15 04:31:48;;;;;;;28.00;26.47;;;;;;;19.71;100.00;100131.38;1796586;79;24225;-67
2022/08/15 04:34:19;;;;;;;27.57;26.07;;;;;;;19.53;100.00;100131.74;1796648;79;24251;-68
2022/08/15 04:36:50;;;;;;;27.57;25.93;;;;;;;19.64;100.00;100136.84;1796552;79;24156;-67
2022/08/15 04:39:20;;;;;;;27.10;25.67;;;;;;;19.79;100.00;100137.42;1796637;79;24595;-67
2022/08/15 04:41:51;;;;;;;26.83;25.33;;;;;;;19.79;100.00;100138.23;1796547;79;24158;-68
2022/08/15 04:44:22;;;;;;;24.97;23.57;;;;;;;19.89;100.00;100136.30;1796529;79;24218;-67
2022/08/15 04:46:52;;;;;;;25.27;23.97;;;;;;;20.04;100.00;100135.20;1796682;79;24225;-68
2022/08/15 04:52:22;;;;;;;25.50;24.07;;;;;;;20.22;100.00;100140.69;2059923;69;25945;-66
2022/08/15 04:54:52;;;;;;;25.00;23.60;;;;;;;20.16;100.00;100132.27;1981720;72;26606;-67
2022/08/15 04:57:22;;;;;;;25.00;23.50;;;;;;;20.16;100.00;100129.45;1981652;72;24109;-67
2022/08/15 04:59:53;;;;;;;25.77;24.17;;;;;;;20.13;100.00;100133.83;1981589;72;24102;-67
2022/08/15 05:02:26;;;;;;;25.27;23.67;;;;;;;20.18;100.00;100132.14;1981791;72;24409;-67
2022/08/15 05:04:56;;;;;;;26.47;24.87;;;;;;;20.21;100.00;100131.41;1981671;72;26612;-67
2022/08/15 05:07:27;;;;;;;26.67;25.17;;;;;;;20.19;100.00;100138.61;1981790;72;24113;-68
2022/08/15 05:09:58;;;;;;;28.03;26.40;;;;;;;20.12;100.00;100127.96;1981770;72;24195;-68
2022/08/15 05:12:29;;;;;;;28.77;27.00;;;;;;;20.05;100.00;100129.80;1981694;72;24553;-67
2022/08/15 05:14:59;;;;;;;29.13;27.43;;;;;;;20.15;100.00;100132.86;1981476;72;24121;-67
2022/08/15 05:17:29;;;;;;;28.83;27.17;;;;;;;20.05;100.00;100131.20;1981673;72;24101;-67
2022/08/15 05:20:00;;;;;;;30.20;28.50;;;;;;;20.05;100.00;100129.22;1981584;72;24195;-67
2022/08/15 05:22:30;;;;;;;30.60;28.70;;;;;;;20.09;100.00;100120.83;1981783;72;24116;-67
2022/08/15 05:25:00;;;;;;;30.87;28.63;;;;;;;19.96;100.00;100125.18;1981639;72;24151;-67
2022/08/15 05:27:30;;;;;;;29.33;27.70;;;;;;;20.05;100.00;100120.75;1981720;72;24167;-67
2022/08/15 05:30:00;;;;;;;30.10;28.33;;;;;;;20.08;100.00;100124.24;1981576;72;24174;-67
2022/08/15 05:32:32;;;;;;;31.33;29.00;;;;;;;20.09;100.00;100132.11;1981645;72;24113;-67
2022/08/15 05:35:02;;;;;;;30.97;29.07;;;;;;;20.08;100.00;100135.52;1981760;72;24614;-67
2022/08/15 05:37:33;;;;;;;32.20;30.20;;;;;;;20.06;100.00;100132.86;1981588;72;24105;-67
2022/08/15 05:40:05;;;;;;;32.53;30.57;;;;;;;19.98;100.00;100140.33;1969484;72;24658;-68
2022/08/15 05:42:40;;;;;;;34.10;31.97;;;;;;;20.06;100.00;100137.91;1967508;73;24247;-68
2022/08/15 05:45:16;;;;;;;32.77;30.77;;;;;;;19.87;100.00;100137.23;2011568;71;24200;-67
2022/08/15 05:50:51;;;;;;;35.00;32.77;;;;;;;20.08;100.00;100141.16;2060082;69;26295;-67
2022/08/15 05:53:31;;;;;;;35.40;33.23;;;;;;;20.05;100.00;100137.67;1981725;72;24677;-66
2022/08/15 05:56:05;;;;;;;35.73;33.43;;;;;;;19.89;100.00;100141.93;1981615;72;24074;-67
2022/08/15 05:58:46;;;;;;;37.10;34.87;;;;;;;19.93;100.00;100143.42;1981743;72;24105;-67
2022/08/15 06:01:20;;;;;;;36.00;33.80;;;;;;;19.96;100.00;100144.09;1981670;72;24134;-66
2022/08/15 06:03:55;;;;;;;36.20;34.00;;;;;;;20.08;100.00;100147.39;1981597;72;24124;-66
2022/08/15 06:06:28;;;;;;;38.00;35.53;;;;;;;20.27;100.00;100141.81;1981593;72;24653;-66
2022/08/15 06:09:02;;;;;;;39.93;37.43;;;;;;;20.20;100.00;100134.58;1981617;72;24168;-67
2022/08/15 06:11:37;;;;;;;43.93;40.33;;;;;;;20.06;100.00;100131.44;1981572;72;24109;-67
2022/08/15 06:14:12;;;;;;;42.30;39.40;;;;;;;20.12;100.00;100131.38;1946689;74;24129;-66
2022/08/15 06:16:46;;;;;;;43.83;41.13;;;;;;;20.06;100.00;100130.03;1946591;73;24652;-67
2022/08/15 06:19:22;;;;;;;44.20;41.40;;;;;;;20.22;100.00;100127.41;1946578;74;24190;-67
2022/08/15 06:21:56;;;;;;;43.27;40.60;;;;;;;20.36;100.00;100119.91;1946554;74;24667;-67
2022/08/15 06:27:30;;;;;;;44.10;41.40;;;;;;;20.45;100.00;100126.95;2060164;69;25933;-67
2022/08/15 06:30:12;;;;;;;47.10;44.00;;;;;;;20.39;100.00;100134.08;2026038;71;24152;-67
2022/08/15 06:32:45;;;;;;;48.50;45.23;;;;;;;20.53;100.00;100134.17;1927377;74;24235;-68
2022/08/15 06:35:22;;;;;;;48.90;45.80;;;;;;;20.57;100.00;100138.71;1979466;72;24684;-67
2022/08/15 06:38:01;;;;;;;50.10;46.77;;;;;;;20.63;100.00;100145.68;1980783;72;24217;-66
2022/08/15 06:40:35;;;;;;;46.17;43.40;;;;;;;20.74;100.00;100143.92;1981802;72;24089;-67
2022/08/15 06:43:08;;;;;;;47.93;45.03;;;;;;;21.04;100.00;100136.27;1946615;74;24119;-68
2022/08/15 06:45:41;;;;;;;50.40;47.23;;;;;;;21.33;100.00;100135.66;1927344;74;24141;-68
2022/08/15 06:48:15;;;;;;;54.17;50.90;;;;;;;21.33;100.00;100137.88;1949138;73;24597;-68
2022/08/15 06:50:48;;;;;;;55.17;51.73;;;;;;;21.23;100.00;100146.14;1946852;73;24599;-69
2022/08/15 06:53:22;;;;;;;49.83;46.73;;;;;;;21.24;100.00;100155.66;1944926;74;24156;-69
2022/08/15 06:55:56;;;;;;;43.33;40.40;;;;;;;21.60;100.00;100152.10;1944901;74;24583;-69
2022/08/15 06:58:33;;;;;;;50.73;47.43;;;;;;;22.01;100.00;100146.16;1983994;72;24188;-69
2022/08/15 07:01:10;;;;;;;49.27;46.17;;;;;;;21.88;100.00;100141.87;1944827;74;24133;-69
2022/08/15 07:03:45;;;;;;;49.90;46.67;;;;;;;21.98;100.00;100144.92;1945279;74;24190;-69
2022/08/15 07:06:19;;;;;;;46.23;43.30;;;;;;;21.94;100.00;100143.23;1944900;73;24132;-69
2022/08/15 07:12:14;;;;;;;48.40;45.13;;;;;;;22.02;100.00;100138.72;2004180;71;31436;-68
2022/08/15 07:17:51;;;;;;;50.63;47.33;;;;;;;22.02;100.00;100140.73;2060052;69;26075;-68
2022/08/15 07:20:21;;;;;;;48.17;44.98;;;;;;;21.94;100.00;100146.88;1981843;72;24101;-68
2022/08/15 07:22:52;;;;;;;44.60;41.87;;;;;;;22.14;100.00;100143.34;1927440;74;24088;-68
2022/08/15 07:25:28;;;;;;;42.53;39.80;;;;;;;22.28;100.00;100144.16;1949972;73;24222;-69
2022/08/15 07:28:01;;;;;;;36.17;33.88;;;;;;;22.22;100.00;100143.67;1949791;73;24563;-71
2022/08/15 07:30:44;;;;;;;41.33;38.70;;;;;;;22.58;100.00;100140.77;1949848;73;24631;-69
2022/08/15 07:33:28;;;;;;;38.60;36.20;;;;;;;22.45;100.00;100143.02;1949457;73;24078;-69
2022/08/15 07:36:06;;;;;;;36.17;33.77;;;;;;;22.39;100.00;100143.12;1949808;73;24203;-68
2022/08/15 07:38:38;;;;;;;35.75;33.33;;;;;;;22.57;100.00;100141.96;1949901;73;24106;-69
2022/08/15 07:41:19;;;;;;;35.88;33.38;;;;;;;22.99;100.00;100139.72;1949913;73;24272;-69
2022/08/15 07:43:50;;;;;;;34.98;32.80;;;;;;;22.75;100.00;100148.72;1950149;73;24130;-69
2022/08/15 07:46:25;;;;;;;33.58;31.48;;;;;;;22.82;100.00;100151.63;1949787;73;24590;-68
2022/08/15 07:49:02;;;;;;;33.18;31.07;;;;;;;22.95;100.00;100152.20;1948528;73;24231;-69
2022/08/15 07:51:40;;;;;;;29.95;27.93;;;;;;;23.07;100.00;100151.94;1946973;73;24565;-69
2022/08/15 07:54:25;;;;;;;29.72;27.98;;;;;;;23.31;100.00;100142.11;1944980;74;24176;-69
2022/08/15 07:56:58;;;;;;;28.30;26.40;;;;;;;23.44;100.00;100144.91;1944960;74;24132;-69
2022/08/15 07:59:33;;;;;;;28.70;26.80;;;;;;;23.63;100.00;100139.62;1983786;72;24603;-69
2022/08/15 08:02:09;;;;;;;28.15;26.20;;;;;;;23.67;100.00;100144.72;1944858;74;24657;-69
2022/08/15 08:04:39;;;;;;;26.20;24.60;;;;;;;23.76;100.00;100149.47;1944085;74;24615;-69
2022/08/15 08:07:17;;;;;;;24.63;23.12;;;;;;;23.99;100.00;100148.67;1983679;72;24704;-69
2022/08/15 08:09:54;;;;;;;23.83;22.42;;;;;;;24.10;100.00;100145.30;1945280;74;24202;-69
2022/08/15 08:12:27;;;;;;;24.60;23.10;;;;;;;24.13;100.00;100150.81;1983970;72;24202;-70
2022/08/15 08:15:03;;;;;;;24.87;23.38;;;;;;;24.21;100.00;100151.92;1945050;74;24584;-69
2022/08/15 08:17:37;;;;;;;23.62;22.37;;;;;;;24.30;100.00;100155.84;1983668;72;24162;-69
2022/08/15 08:20:12;;;;;;;23.22;21.75;;;;;;;24.38;100.00;100155.49;1945127;74;24202;-71
2022/08/15 08:22:46;;;;;;;22.02;20.32;;;;;;;24.47;100.00;100145.20;1945057;74;24198;-68
2022/08/15 08:28:21;;;;;;;20.85;19.35;;;;;;;24.73;100.00;100158.34;2060263;69;25575;-69
2022/08/15 08:30:55;;;;;;;20.15;19.00;;;;;;;24.79;100.00;100149.02;2025595;70;24130;-68
2022/08/15 08:33:31;;;;;;;19.65;18.50;;;;;;;24.85;100.00;100148.89;2025936;71;26612;-69
2022/08/15 08:36:04;;;;;;;20.15;18.42;;;;;;;24.89;100.00;100148.30;2023660;70;24183;-69
2022/08/15 08:38:38;;;;;;;17.80;16.85;;;;;;;24.97;100.00;100152.58;2025638;71;24107;-69
2022/08/15 08:41:25;;;;;;;18.30;17.37;;;;;;;25.01;100.00;100149.15;2025979;70;24128;-69
2022/08/15 08:44:00;;;;;;;18.77;17.73;;;;;;;25.04;100.00;100154.84;2025924;71;24095;-70
2022/08/15 08:46:40;;;;;;;18.27;17.15;;;;;;;25.07;100.00;100154.06;2026332;71;24162;-68
2022/08/15 08:49:15;;;;;;;18.67;17.42;;;;;;;25.13;100.00;100157.31;1921782;73;24207;-69
2022/08/15 08:51:51;;;;;;;19.17;18.07;;;;;;;25.18;100.00;100156.33;1950610;73;24148;-69
2022/08/15 08:54:26;;;;;;;17.73;16.67;;;;;;;25.26;100.00;100157.97;1946604;73;24133;-68
2022/08/15 08:57:00;;;;;;;17.57;16.37;;;;;;;25.28;100.00;100159.82;1946608;74;24560;-68
2022/08/15 08:59:34;;;;;;;18.77;17.67;;;;;;;25.29;100.00;100151.47;1946617;74;24220;-69
2022/08/15 09:02:08;;;;;;;17.45;16.37;;;;;;;25.36;100.00;100158.63;1946819;74;24099;-68
2022/08/15 09:04:41;;;;;;;18.07;16.95;;;;;;;25.34;100.00;100163.06;1945275;74;24192;-69
2022/08/15 09:07:14;;;;;;;17.98;16.95;;;;;;;25.53;100.00;100151.95;1913010;75;24124;-68
2022/08/15 09:09:47;;;;;;;18.48;17.20;;;;;;;25.37;100.00;100161.64;1911232;75;24129;-69
2022/08/15 09:15:21;;;;;;;17.23;16.32;;;;;;;25.49;100.00;100164.75;2059971;69;25953;-68
2022/08/15 09:17:54;;;;;;;18.82;17.73;;;;;;;25.47;100.00;100171.42;1981738;72;24104;-68
2022/08/15 09:20:28;;;;;;;18.90;17.90;;;;;;;25.55;100.00;100173.70;1981623;72;24183;-69
2022/08/15 09:23:00;;;;;;;17.85;16.95;;;;;;;25.59;100.00;100176.77;1981752;72;24105;-69
2022/08/15 09:25:33;;;;;;;18.92;17.73;;;;;;;25.55;100.00;100177.36;1981650;72;24148;-69
2022/08/15 09:28:08;;;;;;;17.35;16.30;;;;;;;25.58;100.00;100168.05;1946613;74;24649;-69
2022/08/15 09:30:39;;;;;;;17.82;16.62;;;;;;;25.65;100.00;100171.50;1945812;74;24535;-69
2022/08/15 09:36:27;;;;;;;17.20;16.05;;;;;;;25.65;100.00;100168.66;2022551;71;25961;-70
2022/08/15 09:42:09;;;;;;;17.00;15.88;;;;;;;25.61;100.00;100173.53;2060022;69;25518;-69
2022/08/15 09:44:54;;;;;;;17.02;15.80;;;;;;;25.57;100.00;100176.37;1981808;72;24126;-69
2022/08/15 09:47:35;;;;;;;17.82;16.10;;;;;;;25.60;100.00;100173.31;1944808;74;24212;-69
2022/08/15 09:50:31;;;;;;;16.65;15.38;;;;;;;25.54;100.00;100173.52;1946385;73;24255;-69
2022/08/15 09:53:06;;;;;;;15.85;15.05;;;;;;;25.49;100.00;100184.65;1925593;73;24172;-70
2022/08/15 09:55:44;;;;;;;15.15;14.23;;;;;;;25.46;100.00;100186.07;1946799;73;25211;-70
2022/08/15 09:58:20;;;;;;;15.43;14.47;;;;;;;25.63;100.00;100184.70;1946762;74;24122;-69
2022/08/15 10:01:03;;;;;;;16.55;14.95;;;;;;;25.74;100.00;100185.55;1946696;74;24188;-69
2022/08/15 10:03:57;;;;;;;14.35;13.45;;;;;;;25.67;100.00;100192.63;1950542;73;24202;-70
2022/08/15 10:06:31;;;;;;;14.30;13.40;;;;;;;25.78;100.00;100188.39;1913008;75;24193;-69
2022/08/15 10:09:19;;;;;;;14.18;13.35;;;;;;;25.67;100.00;100190.42;1910951;75;24234;-69
2022/08/15 10:12:06;;;;;;;15.55;14.55;;;;;;;25.76;100.00;100199.34;1950542;73;24105;-70
2022/08/15 10:17:44;;;;;;;14.75;14.05;;;;;;;25.82;100.00;100187.78;2060274;69;25580;-70
2022/08/15 10:20:54;;;;;;;15.30;14.40;;;;;;;25.76;100.00;100195.08;2025920;71;25117;-71
2022/08/15 10:23:31;;;;;;;15.35;14.65;;;;;;;25.68;100.00;100197.11;1945024;73;24155;-69
2022/08/15 10:26:18;;;;;;;16.77;15.78;;;;;;;25.72;100.00;100192.23;1985466;72;24165;-69
2022/08/15 10:29:01;;;;;;;15.28;14.47;;;;;;;25.65;100.00;100192.84;1981609;72;24206;-69
2022/08/15 10:31:34;;;;;;;16.97;15.43;;;;;;;25.74;100.00;100193.27;1946797;74;24114;-69
2022/08/15 10:34:05;;;;;;;15.53;14.47;;;;;;;25.90;100.00;100194.30;1946459;74;24241;-70
2022/08/15 10:36:37;;;;;;;16.23;15.05;;;;;;;26.10;100.00;100189.22;1946605;74;25158;-69
2022/08/15 10:39:22;;;;;;;15.08;14.18;;;;;;;26.06;100.00;100190.44;1946522;74;24140;-69
2022/08/15 10:42:00;;;;;;;15.40;14.35;;;;;;;26.18;100.00;100192.30;1945738;74;24129;-70
2022/08/15 10:47:37;;;;;;;15.65;14.75;;;;;;;26.01;100.00;100185.17;2060022;69;25933;-69
2022/08/15 10:53:32;;;;;;;15.40;14.60;;;;;;;25.94;100.00;100175.19;2013096;71;31463;-68
2022/08/15 10:56:16;;;;;;;14.83;14.03;;;;;;;26.02;100.00;100183.33;1986083;72;24189;-67
2022/08/15 11:01:45;;;;;;;14.80;13.93;;;;;;;26.08;100.00;100172.36;2061378;69;28151;-69
2022/08/15 11:04:25;;;;;;;14.47;13.78;;;;;;;26.12;100.00;100175.41;2017344;71;25160;-69
2022/08/15 11:06:56;;;;;;;14.98;14.15;;;;;;;26.18;100.00;100175.21;2016750;71;24203;-68
2022/08/15 11:09:26;;;;;;;15.25;14.45;;;;;;;26.22;100.00;100178.91;2016743;71;25165;-68
2022/08/15 11:12:00;;;;;;;15.03;14.23;;;;;;;26.28;100.00;100175.02;2016881;71;24134;-68
2022/08/15 11:14:34;;;;;;;15.30;14.50;;;;;;;26.13;100.00;100174.19;2016634;71;24650;-68
2022/08/15 11:17:05;;;;;;;15.90;15.00;;;;;;;26.12;100.00;100174.59;2016893;71;24195;-69
2022/08/15 11:19:38;;;;;;;16.07;15.18;;;;;;;26.00;100.00;100182.11;2016731;71;24185;-70
2022/08/15 11:22:19;;;;;;;17.12;16.15;;;;;;;26.03;100.00;100185.56;2016849;71;24181;-69
2022/08/15 11:24:44;;;;;;;17.40;16.30;;;;;;;26.05;100.00;100186.80;2015322;71;24142;-69
2022/08/15 11:27:18;;;;;;;16.60;15.65;;;;;;;26.21;100.00;100190.08;2016766;71;24185;-69
2022/08/15 11:29:51;;;;;;;17.17;16.15;;;;;;;26.10;100.00;100188.43;2016888;71;24127;-69
2022/08/15 11:32:28;;;;;;;16.70;15.75;;;;;;;25.97;100.00;100184.36;2016737;71;24200;-69
2022/08/15 11:34:59;;;;;;;18.32;17.12;;;;;;;26.06;100.00;100191.86;2016718;71;25157;-69
2022/08/15 11:37:32;;;;;;;17.23;16.20;;;;;;;26.13;100.00;100181.31;2016798;71;24724;-69
2022/08/15 11:40:06;;;;;;;17.62;16.48;;;;;;;26.04;100.00;100183.74;1938090;74;25600;-69
2022/08/15 11:42:39;;;;;;;18.45;17.25;;;;;;;26.05;100.00;100189.65;1938225;74;24198;-69
2022/08/15 11:45:15;;;;;;;17.82;16.80;;;;;;;26.11;100.00;100188.00;2016759;71;24170;-69
2022/08/15 11:51:06;;;;;;;15.93;15.03;;;;;;;26.25;100.00;100192.31;1998857;71;31866;-69
2022/08/15 11:56:54;;;;;;;14.93;14.05;;;;;;;26.30;100.00;100200.24;2060439;69;26592;-70
2022/08/15 11:59:28;;;;;;;15.75;14.78;;;;;;;26.27;100.00;100194.77;1981768;72;25201;-68
2022/08/15 12:02:12;;;;;;;15.30;14.43;;;;;;;26.34;100.00;100204.72;1981608;72;24190;-68
2022/08/15 12:04:44;;;;;;;14.85;14.00;;;;;;;26.27;100.00;100207.58;1981704;72;25143;-69
2022/08/15 12:07:19;;;;;;;14.23;13.40;;;;;;;26.18;100.00;100204.29;1981623;72;24584;-69
2022/08/15 12:09:58;;;;;;;15.10;14.15;;;;;;;26.26;100.00;100204.52;1981662;72;25202;-69
2022/08/15 12:12:35;;;;;;;14.60;13.53;;;;;;;26.30;100.00;100206.75;1981708;72;25127;-70
2022/08/15 12:15:11;;;;;;;12.90;12.30;;;;;;;26.26;100.00;100206.77;1981218;72;25143;-68
2022/08/15 12:17:48;;;;;;;13.40;12.70;;;;;;;26.44;100.00;100205.94;1981620;72;24730;-68
2022/08/15 12:20:15;;;;;;;13.08;12.37;;;;;;;26.60;100.00;100207.13;1980459;72;25205;-68
2022/08/15 12:22:45;;;;;;;14.90;13.50;;;;;;;26.67;100.00;100201.41;1981793;72;24683;-69
2022/08/15 12:25:16;;;;;;;13.38;12.78;;;;;;;26.53;100.00;100207.13;1981736;72;24206;-69
2022/08/15 12:27:46;;;;;;;13.35;12.37;;;;;;;26.75;100.00;100209.33;1981721;72;24537;-69
2022/08/15 12:30:16;;;;;;;14.00;12.95;;;;;;;26.82;100.00;100209.33;1981711;72;25143;-68
2022/08/15 12:32:47;;;;;;;14.70;13.32;;;;;;;26.90;100.00;100199.56;1981697;72;24234;-69
2022/08/15 12:35:19;;;;;;;14.83;13.50;;;;;;;26.68;100.00;100199.38;1981680;72;25663;-69
2022/08/15 12:37:49;;;;;;;14.95;13.72;;;;;;;26.56;100.00;100202.66;1981798;72;24101;-69
2022/08/15 12:40:19;;;;;;;16.65;15.95;;;;;;;26.51;100.00;100195.95;1981635;72;24140;-69
2022/08/15 12:42:50;;;;;;;14.98;14.07;;;;;;;26.47;100.00;100199.42;1981678;72;24101;-69
2022/08/15 12:45:21;;;;;;;14.75;13.93;;;;;;;26.47;100.00;100197.39;1981745;72;25124;-69